sensor_id;sensor_type;location;lat;lon;timestamp;P1;durP1;ratioP1;P2;durP2;ratioP2
38629;SDS011;24384;51.988;4.644;2023-07-30T00:01:25;17.92;;;3.35;;
38629;SDS011;24384;51.988;4.644;2023-07-30T00:03:50;18.85;;;3.20;;
38629;SDS011;24384;51.988;4.644;2023-07-30T00:06:16;16.92;;;3.60;;
38629;SDS011;24384;51.988;4.644;2023-07-30T00:08:41;16.55;;;3.38;;
38629;SDS011;24384;51.988;4.644;2023-07-30T00:11:06;21.70;;;3.83;;
38629;SDS011;24384;51.988;4.644;2023-07-30T00:13:31;13.95;;;4.38;;
38629;SDS011;24384;51.988;4.644;2023-07-30T00:15:57;13.95;;;4.00;;
38629;SDS011;24384;51.988;4.644;2023-07-30T00:18:22;19.17;;;4.63;;
38629;SDS011;24384;51.988;4.644;2023-07-30T00:20:47;15.70;;;3.83;;
38629;SDS011;24384;51.988;4.644;2023-07-30T00:23:12;20.52;;;3.45;;
38629;SDS011;24384;51.988;4.644;2023-07-30T00:25:38;15.80;;;4.05;;
38629;SDS011;24384;51.988;4.644;2023-07-30T00:28:03;13.02;;;4.28;;
38629;SDS011;24384;51.988;4.644;2023-07-30T00:30:28;22.02;;;4.55;;
38629;SDS011;24384;51.988;4.644;2023-07-30T00:32:54;19.88;;;4.25;;
38629;SDS011;24384;51.988;4.644;2023-07-30T00:35:19;17.75;;;4.53;;
38629;SDS011;24384;51.988;4.644;2023-07-30T00:37:44;20.98;;;5.40;;
38629;SDS011;24384;51.988;4.644;2023-07-30T00:40:10;26.50;;;4.90;;
38629;SDS011;24384;51.988;4.644;2023-07-30T00:42:36;23.23;;;3.75;;
38629;SDS011;24384;51.988;4.644;2023-07-30T00:45:01;23.67;;;4.47;;
38629;SDS011;24384;51.988;4.644;2023-07-30T00:47:28;15.50;;;4.13;;
38629;SDS011;24384;51.988;4.644;2023-07-30T00:49:53;18.73;;;5.32;;
38629;SDS011;24384;51.988;4.644;2023-07-30T00:52:19;19.17;;;3.88;;
38629;SDS011;24384;51.988;4.644;2023-07-30T00:54:46;18.52;;;4.43;;
38629;SDS011;24384;51.988;4.644;2023-07-30T00:57:13;16.48;;;3.65;;
38629;SDS011;24384;51.988;4.644;2023-07-30T00:59:40;17.27;;;4.70;;
38629;SDS011;24384;51.988;4.644;2023-07-30T01:02:05;16.35;;;3.67;;
38629;SDS011;24384;51.988;4.644;2023-07-30T01:04:31;24.77;;;4.45;;
38629;SDS011;24384;51.988;4.644;2023-07-30T01:06:57;21.63;;;3.75;;
38629;SDS011;24384;51.988;4.644;2023-07-30T01:09:22;16.70;;;3.90;;
38629;SDS011;24384;51.988;4.644;2023-07-30T01:11:48;14.15;;;3.60;;
38629;SDS011;24384;51.988;4.644;2023-07-30T01:14:14;19.00;;;4.78;;
38629;SDS011;24384;51.988;4.644;2023-07-30T01:16:40;23.92;;;5.50;;
38629;SDS011;24384;51.988;4.644;2023-07-30T01:19:06;16.83;;;6.13;;
38629;SDS011;24384;51.988;4.644;2023-07-30T01:21:32;22.40;;;4.65;;
38629;SDS011;24384;51.988;4.644;2023-07-30T01:24:01;20.55;;;4.70;;
38629;SDS011;24384;51.988;4.644;2023-07-30T01:26:48;18.63;;;4.85;;
38629;SDS011;24384;51.988;4.644;2023-07-30T01:29:18;21.48;;;3.97;;
38629;SDS011;24384;51.988;4.644;2023-07-30T01:31:47;25.17;;;4.85;;
38629;SDS011;24384;51.988;4.644;2023-07-30T01:34:19;17.85;;;4.35;;
38629;SDS011;24384;51.988;4.644;2023-07-30T01:36:45;31.05;;;5.57;;
38629;SDS011;24384;51.988;4.644;2023-07-30T01:39:12;17.45;;;5.07;;
38629;SDS011;24384;51.988;4.644;2023-07-30T01:41:38;23.55;;;4.90;;
38629;SDS011;24384;51.988;4.644;2023-07-30T01:44:03;19.80;;;4.88;;
38629;SDS011;24384;51.988;4.644;2023-07-30T01:46:28;19.08;;;3.80;;
38629;SDS011;24384;51.988;4.644;2023-07-30T01:48:54;14.90;;;4.10;;
38629;SDS011;24384;51.988;4.644;2023-07-30T01:51:19;21.15;;;4.38;;
38629;SDS011;24384;51.988;4.644;2023-07-30T01:53:44;20.50;;;5.20;;
38629;SDS011;24384;51.988;4.644;2023-07-30T01:56:10;25.45;;;5.43;;
38629;SDS011;24384;51.988;4.644;2023-07-30T01:58:35;28.17;;;5.53;;
38629;SDS011;24384;51.988;4.644;2023-07-30T02:01:00;25.50;;;4.45;;
38629;SDS011;24384;51.988;4.644;2023-07-30T02:03:25;16.85;;;5.07;;
38629;SDS011;24384;51.988;4.644;2023-07-30T02:05:51;19.25;;;4.30;;
38629;SDS011;24384;51.988;4.644;2023-07-30T02:08:16;24.83;;;4.57;;
38629;SDS011;24384;51.988;4.644;2023-07-30T02:10:41;23.27;;;5.80;;
38629;SDS011;24384;51.988;4.644;2023-07-30T02:13:06;25.30;;;5.30;;
38629;SDS011;24384;51.988;4.644;2023-07-30T02:15:32;29.58;;;6.70;;
38629;SDS011;24384;51.988;4.644;2023-07-30T02:17:57;23.13;;;5.10;;
38629;SDS011;24384;51.988;4.644;2023-07-30T02:20:23;23.95;;;4.45;;
38629;SDS011;24384;51.988;4.644;2023-07-30T02:22:48;25.77;;;5.15;;
38629;SDS011;24384;51.988;4.644;2023-07-30T02:25:13;20.23;;;4.30;;
38629;SDS011;24384;51.988;4.644;2023-07-30T02:27:38;26.48;;;4.13;;
38629;SDS011;24384;51.988;4.644;2023-07-30T02:30:04;23.83;;;5.40;;
38629;SDS011;24384;51.988;4.644;2023-07-30T02:32:30;17.25;;;3.95;;
38629;SDS011;24384;51.988;4.644;2023-07-30T02:34:55;20.85;;;4.80;;
38629;SDS011;24384;51.988;4.644;2023-07-30T02:37:20;22.60;;;4.50;;
38629;SDS011;24384;51.988;4.644;2023-07-30T02:39:45;27.10;;;6.00;;
38629;SDS011;24384;51.988;4.644;2023-07-30T02:42:11;26.27;;;4.63;;
38629;SDS011;24384;51.988;4.644;2023-07-30T02:44:36;24.85;;;7.13;;
38629;SDS011;24384;51.988;4.644;2023-07-30T02:47:01;22.05;;;5.35;;
38629;SDS011;24384;51.988;4.644;2023-07-30T02:49:26;22.65;;;5.72;;
38629;SDS011;24384;51.988;4.644;2023-07-30T02:51:52;23.80;;;5.30;;
38629;SDS011;24384;51.988;4.644;2023-07-30T02:54:17;29.38;;;5.28;;
38629;SDS011;24384;51.988;4.644;2023-07-30T02:56:45;26.85;;;5.55;;
38629;SDS011;24384;51.988;4.644;2023-07-30T02:59:10;30.30;;;6.22;;
38629;SDS011;24384;51.988;4.644;2023-07-30T03:01:35;31.35;;;6.88;;
38629;SDS011;24384;51.988;4.644;2023-07-30T03:04:01;30.80;;;6.82;;
38629;SDS011;24384;51.988;4.644;2023-07-30T03:06:26;36.15;;;7.50;;
38629;SDS011;24384;51.988;4.644;2023-07-30T03:08:52;31.58;;;5.60;;
38629;SDS011;24384;51.988;4.644;2023-07-30T03:11:18;25.25;;;6.47;;
38629;SDS011;24384;51.988;4.644;2023-07-30T03:13:43;28.55;;;6.07;;
38629;SDS011;24384;51.988;4.644;2023-07-30T03:16:08;23.75;;;5.93;;
38629;SDS011;24384;51.988;4.644;2023-07-30T03:18:33;29.20;;;5.10;;
38629;SDS011;24384;51.988;4.644;2023-07-30T03:20:59;28.33;;;5.55;;
38629;SDS011;24384;51.988;4.644;2023-07-30T03:23:25;44.55;;;7.90;;
38629;SDS011;24384;51.988;4.644;2023-07-30T03:25:50;19.75;;;5.38;;
38629;SDS011;24384;51.988;4.644;2023-07-30T03:28:16;30.83;;;5.30;;
38629;SDS011;24384;51.988;4.644;2023-07-30T03:30:41;26.48;;;5.30;;
38629;SDS011;24384;51.988;4.644;2023-07-30T03:33:06;24.42;;;5.03;;
38629;SDS011;24384;51.988;4.644;2023-07-30T03:35:31;25.80;;;5.97;;
38629;SDS011;24384;51.988;4.644;2023-07-30T03:37:57;32.00;;;7.22;;
38629;SDS011;24384;51.988;4.644;2023-07-30T03:40:22;34.67;;;7.45;;
38629;SDS011;24384;51.988;4.644;2023-07-30T03:42:48;55.45;;;7.65;;
38629;SDS011;24384;51.988;4.644;2023-07-30T03:45:14;35.75;;;6.88;;
38629;SDS011;24384;51.988;4.644;2023-07-30T03:47:39;31.63;;;7.75;;
38629;SDS011;24384;51.988;4.644;2023-07-30T03:50:05;30.23;;;6.45;;
38629;SDS011;24384;51.988;4.644;2023-07-30T03:52:30;25.20;;;5.30;;
38629;SDS011;24384;51.988;4.644;2023-07-30T03:54:57;33.10;;;6.55;;
38629;SDS011;24384;51.988;4.644;2023-07-30T03:57:23;31.48;;;7.05;;
38629;SDS011;24384;51.988;4.644;2023-07-30T03:59:48;37.75;;;7.75;;
38629;SDS011;24384;51.988;4.644;2023-07-30T04:02:13;29.85;;;6.72;;
38629;SDS011;24384;51.988;4.644;2023-07-30T04:04:41;27.98;;;6.18;;
38629;SDS011;24384;51.988;4.644;2023-07-30T04:07:10;27.27;;;7.22;;
38629;SDS011;24384;51.988;4.644;2023-07-30T04:09:35;31.77;;;5.45;;
38629;SDS011;24384;51.988;4.644;2023-07-30T04:12:01;28.48;;;6.15;;
38629;SDS011;24384;51.988;4.644;2023-07-30T04:14:26;21.73;;;6.40;;
38629;SDS011;24384;51.988;4.644;2023-07-30T04:16:51;32.75;;;7.43;;
38629;SDS011;24384;51.988;4.644;2023-07-30T04:19:17;26.15;;;6.75;;
38629;SDS011;24384;51.988;4.644;2023-07-30T04:21:42;29.95;;;5.07;;
38629;SDS011;24384;51.988;4.644;2023-07-30T04:24:07;30.08;;;5.95;;
38629;SDS011;24384;51.988;4.644;2023-07-30T04:26:32;36.55;;;5.70;;
38629;SDS011;24384;51.988;4.644;2023-07-30T04:28:58;38.72;;;6.25;;
38629;SDS011;24384;51.988;4.644;2023-07-30T04:31:23;43.35;;;6.70;;
38629;SDS011;24384;51.988;4.644;2023-07-30T04:33:48;42.97;;;7.88;;
38629;SDS011;24384;51.988;4.644;2023-07-30T04:36:13;36.08;;;6.72;;
38629;SDS011;24384;51.988;4.644;2023-07-30T04:38:39;29.52;;;6.00;;
38629;SDS011;24384;51.988;4.644;2023-07-30T04:41:04;29.55;;;5.97;;
38629;SDS011;24384;51.988;4.644;2023-07-30T04:43:29;34.45;;;7.18;;
38629;SDS011;24384;51.988;4.644;2023-07-30T04:45:55;38.78;;;6.13;;
38629;SDS011;24384;51.988;4.644;2023-07-30T04:48:20;30.23;;;5.35;;
38629;SDS011;24384;51.988;4.644;2023-07-30T04:50:45;33.00;;;6.13;;
38629;SDS011;24384;51.988;4.644;2023-07-30T04:53:10;32.17;;;7.20;;
38629;SDS011;24384;51.988;4.644;2023-07-30T04:55:36;30.90;;;6.55;;
38629;SDS011;24384;51.988;4.644;2023-07-30T04:58:01;31.92;;;6.60;;
38629;SDS011;24384;51.988;4.644;2023-07-30T05:00:27;35.55;;;6.00;;
38629;SDS011;24384;51.988;4.644;2023-07-30T05:02:52;22.50;;;4.72;;
38629;SDS011;24384;51.988;4.644;2023-07-30T05:05:17;34.03;;;6.85;;
38629;SDS011;24384;51.988;4.644;2023-07-30T05:07:43;35.20;;;5.75;;
38629;SDS011;24384;51.988;4.644;2023-07-30T05:10:08;35.50;;;8.25;;
38629;SDS011;24384;51.988;4.644;2023-07-30T05:12:35;25.08;;;5.30;;
38629;SDS011;24384;51.988;4.644;2023-07-30T05:15:01;39.38;;;8.93;;
38629;SDS011;24384;51.988;4.644;2023-07-30T05:17:26;26.85;;;6.47;;
38629;SDS011;24384;51.988;4.644;2023-07-30T05:19:51;28.15;;;5.57;;
38629;SDS011;24384;51.988;4.644;2023-07-30T05:22:17;32.20;;;7.15;;
38629;SDS011;24384;51.988;4.644;2023-07-30T05:24:42;38.70;;;6.55;;
38629;SDS011;24384;51.988;4.644;2023-07-30T05:27:07;26.83;;;6.53;;
38629;SDS011;24384;51.988;4.644;2023-07-30T05:29:32;33.08;;;6.90;;
38629;SDS011;24384;51.988;4.644;2023-07-30T05:31:58;23.75;;;5.18;;
38629;SDS011;24384;51.988;4.644;2023-07-30T05:34:23;31.73;;;6.47;;
38629;SDS011;24384;51.988;4.644;2023-07-30T05:36:48;24.83;;;6.05;;
38629;SDS011;24384;51.988;4.644;2023-07-30T05:39:14;22.42;;;4.90;;
38629;SDS011;24384;51.988;4.644;2023-07-30T05:41:39;42.47;;;7.68;;
38629;SDS011;24384;51.988;4.644;2023-07-30T05:44:04;28.05;;;5.65;;
38629;SDS011;24384;51.988;4.644;2023-07-30T05:46:29;26.60;;;5.97;;
38629;SDS011;24384;51.988;4.644;2023-07-30T05:48:55;34.10;;;6.55;;
38629;SDS011;24384;51.988;4.644;2023-07-30T05:51:20;28.63;;;6.95;;
38629;SDS011;24384;51.988;4.644;2023-07-30T05:53:45;31.35;;;6.20;;
38629;SDS011;24384;51.988;4.644;2023-07-30T05:56:10;34.72;;;6.70;;
38629;SDS011;24384;51.988;4.644;2023-07-30T05:58:38;25.55;;;6.47;;
38629;SDS011;24384;51.988;4.644;2023-07-30T06:01:03;29.65;;;7.15;;
38629;SDS011;24384;51.988;4.644;2023-07-30T06:03:29;35.58;;;7.30;;
38629;SDS011;24384;51.988;4.644;2023-07-30T06:05:54;30.95;;;6.95;;
38629;SDS011;24384;51.988;4.644;2023-07-30T06:08:19;21.70;;;5.13;;
38629;SDS011;24384;51.988;4.644;2023-07-30T06:10:44;23.00;;;5.78;;
38629;SDS011;24384;51.988;4.644;2023-07-30T06:13:11;19.52;;;5.22;;
38629;SDS011;24384;51.988;4.644;2023-07-30T06:15:36;29.55;;;6.03;;
38629;SDS011;24384;51.988;4.644;2023-07-30T06:18:01;25.65;;;6.30;;
38629;SDS011;24384;51.988;4.644;2023-07-30T06:20:28;23.27;;;4.68;;
38629;SDS011;24384;51.988;4.644;2023-07-30T06:22:53;29.00;;;5.28;;
38629;SDS011;24384;51.988;4.644;2023-07-30T06:25:18;23.50;;;5.25;;
38629;SDS011;24384;51.988;4.644;2023-07-30T06:27:44;17.98;;;4.25;;
38629;SDS011;24384;51.988;4.644;2023-07-30T06:30:09;22.27;;;5.43;;
38629;SDS011;24384;51.988;4.644;2023-07-30T06:32:35;21.92;;;4.63;;
38629;SDS011;24384;51.988;4.644;2023-07-30T06:35:01;25.33;;;5.35;;
38629;SDS011;24384;51.988;4.644;2023-07-30T06:37:27;22.02;;;5.40;;
38629;SDS011;24384;51.988;4.644;2023-07-30T06:39:53;31.17;;;6.20;;
38629;SDS011;24384;51.988;4.644;2023-07-30T06:42:18;20.05;;;4.38;;
38629;SDS011;24384;51.988;4.644;2023-07-30T06:44:43;26.17;;;5.45;;
38629;SDS011;24384;51.988;4.644;2023-07-30T06:47:09;25.75;;;5.13;;
38629;SDS011;24384;51.988;4.644;2023-07-30T06:49:34;23.48;;;4.28;;
38629;SDS011;24384;51.988;4.644;2023-07-30T06:51:59;30.23;;;5.43;;
38629;SDS011;24384;51.988;4.644;2023-07-30T06:54:25;24.75;;;5.13;;
38629;SDS011;24384;51.988;4.644;2023-07-30T06:56:50;16.13;;;3.83;;
38629;SDS011;24384;51.988;4.644;2023-07-30T06:59:15;17.77;;;4.10;;
38629;SDS011;24384;51.988;4.644;2023-07-30T07:01:41;21.02;;;5.03;;
38629;SDS011;24384;51.988;4.644;2023-07-30T07:04:06;24.02;;;4.97;;
38629;SDS011;24384;51.988;4.644;2023-07-30T07:06:32;19.70;;;4.43;;
38629;SDS011;24384;51.988;4.644;2023-07-30T07:08:58;19.52;;;4.10;;
38629;SDS011;24384;51.988;4.644;2023-07-30T07:11:23;29.23;;;5.13;;
38629;SDS011;24384;51.988;4.644;2023-07-30T07:13:48;25.50;;;5.40;;
38629;SDS011;24384;51.988;4.644;2023-07-30T07:16:13;24.45;;;4.68;;
38629;SDS011;24384;51.988;4.644;2023-07-30T07:18:39;29.80;;;6.10;;
38629;SDS011;24384;51.988;4.644;2023-07-30T07:21:04;27.58;;;6.30;;
38629;SDS011;24384;51.988;4.644;2023-07-30T07:23:29;27.08;;;5.07;;
38629;SDS011;24384;51.988;4.644;2023-07-30T07:25:54;24.38;;;4.38;;
38629;SDS011;24384;51.988;4.644;2023-07-30T07:28:20;23.17;;;4.78;;
38629;SDS011;24384;51.988;4.644;2023-07-30T07:30:45;27.13;;;5.63;;
38629;SDS011;24384;51.988;4.644;2023-07-30T07:33:11;26.30;;;6.93;;
38629;SDS011;24384;51.988;4.644;2023-07-30T07:35:38;24.30;;;5.03;;
38629;SDS011;24384;51.988;4.644;2023-07-30T07:38:04;25.40;;;5.45;;
38629;SDS011;24384;51.988;4.644;2023-07-30T07:40:29;29.52;;;8.77;;
38629;SDS011;24384;51.988;4.644;2023-07-30T07:42:55;19.73;;;4.05;;
38629;SDS011;24384;51.988;4.644;2023-07-30T07:45:20;27.33;;;4.47;;
38629;SDS011;24384;51.988;4.644;2023-07-30T07:47:47;25.15;;;4.47;;
38629;SDS011;24384;51.988;4.644;2023-07-30T07:50:12;25.02;;;5.00;;
38629;SDS011;24384;51.988;4.644;2023-07-30T07:52:37;19.42;;;3.50;;
38629;SDS011;24384;51.988;4.644;2023-07-30T07:55:03;20.05;;;4.22;;
38629;SDS011;24384;51.988;4.644;2023-07-30T07:57:29;15.38;;;3.80;;
38629;SDS011;24384;51.988;4.644;2023-07-30T07:59:55;21.10;;;3.92;;
38629;SDS011;24384;51.988;4.644;2023-07-30T08:02:20;13.07;;;3.72;;
38629;SDS011;24384;51.988;4.644;2023-07-30T08:04:45;14.20;;;3.50;;
38629;SDS011;24384;51.988;4.644;2023-07-30T08:07:10;16.55;;;4.15;;
38629;SDS011;24384;51.988;4.644;2023-07-30T08:09:36;16.52;;;3.42;;
38629;SDS011;24384;51.988;4.644;2023-07-30T08:12:01;18.63;;;4.28;;
38629;SDS011;24384;51.988;4.644;2023-07-30T08:14:26;14.57;;;3.33;;
38629;SDS011;24384;51.988;4.644;2023-07-30T08:16:51;22.50;;;3.72;;
38629;SDS011;24384;51.988;4.644;2023-07-30T08:19:17;12.35;;;2.85;;
38629;SDS011;24384;51.988;4.644;2023-07-30T08:21:42;10.98;;;2.88;;
38629;SDS011;24384;51.988;4.644;2023-07-30T08:24:08;12.50;;;2.47;;
38629;SDS011;24384;51.988;4.644;2023-07-30T08:26:33;17.90;;;2.92;;
38629;SDS011;24384;51.988;4.644;2023-07-30T08:28:58;8.90;;;3.00;;
38629;SDS011;24384;51.988;4.644;2023-07-30T08:31:24;9.70;;;2.72;;
38629;SDS011;24384;51.988;4.644;2023-07-30T08:33:49;17.95;;;3.40;;
38629;SDS011;24384;51.988;4.644;2023-07-30T08:36:14;12.00;;;2.55;;
38629;SDS011;24384;51.988;4.644;2023-07-30T08:38:42;10.77;;;2.17;;
38629;SDS011;24384;51.988;4.644;2023-07-30T08:41:07;14.82;;;2.45;;
38629;SDS011;24384;51.988;4.644;2023-07-30T08:43:33;13.52;;;2.95;;
38629;SDS011;24384;51.988;4.644;2023-07-30T08:45:59;13.18;;;2.85;;
38629;SDS011;24384;51.988;4.644;2023-07-30T08:48:25;11.27;;;3.15;;
38629;SDS011;24384;51.988;4.644;2023-07-30T08:50:50;11.50;;;2.63;;
38629;SDS011;24384;51.988;4.644;2023-07-30T08:53:17;10.30;;;2.75;;
38629;SDS011;24384;51.988;4.644;2023-07-30T08:55:43;10.75;;;2.30;;
38629;SDS011;24384;51.988;4.644;2023-07-30T08:58:09;11.70;;;3.00;;
38629;SDS011;24384;51.988;4.644;2023-07-30T09:00:36;13.35;;;3.33;;
38629;SDS011;24384;51.988;4.644;2023-07-30T09:03:04;11.25;;;2.33;;
38629;SDS011;24384;51.988;4.644;2023-07-30T09:05:29;13.93;;;2.65;;
38629;SDS011;24384;51.988;4.644;2023-07-30T09:07:58;14.73;;;2.83;;
38629;SDS011;24384;51.988;4.644;2023-07-30T09:10:23;13.93;;;2.72;;
38629;SDS011;24384;51.988;4.644;2023-07-30T09:12:54;13.80;;;2.63;;
38629;SDS011;24384;51.988;4.644;2023-07-30T09:15:29;15.93;;;3.33;;
38629;SDS011;24384;51.988;4.644;2023-07-30T09:17:57;12.00;;;2.50;;
38629;SDS011;24384;51.988;4.644;2023-07-30T09:20:22;13.43;;;3.88;;
38629;SDS011;24384;51.988;4.644;2023-07-30T09:22:47;7.43;;;2.00;;
38629;SDS011;24384;51.988;4.644;2023-07-30T09:25:17;15.60;;;2.88;;
38629;SDS011;24384;51.988;4.644;2023-07-30T09:27:47;12.50;;;2.75;;
38629;SDS011;24384;51.988;4.644;2023-07-30T09:30:13;10.38;;;2.80;;
38629;SDS011;24384;51.988;4.644;2023-07-30T09:32:38;15.10;;;2.50;;
38629;SDS011;24384;51.988;4.644;2023-07-30T09:35:04;8.07;;;1.98;;
38629;SDS011;24384;51.988;4.644;2023-07-30T09:37:31;8.93;;;2.95;;
38629;SDS011;24384;51.988;4.644;2023-07-30T09:40:01;13.07;;;2.53;;
38629;SDS011;24384;51.988;4.644;2023-07-30T09:42:27;7.93;;;2.00;;
38629;SDS011;24384;51.988;4.644;2023-07-30T09:44:53;12.38;;;2.85;;
38629;SDS011;24384;51.988;4.644;2023-07-30T09:47:18;9.32;;;1.95;;
38629;SDS011;24384;51.988;4.644;2023-07-30T09:49:43;11.00;;;2.88;;
38629;SDS011;24384;51.988;4.644;2023-07-30T09:52:09;14.88;;;3.20;;
38629;SDS011;24384;51.988;4.644;2023-07-30T09:54:35;11.75;;;3.50;;
38629;SDS011;24384;51.988;4.644;2023-07-30T09:57:01;10.73;;;2.45;;
38629;SDS011;24384;51.988;4.644;2023-07-30T09:59:28;16.95;;;3.78;;
38629;SDS011;24384;51.988;4.644;2023-07-30T10:01:54;8.88;;;2.15;;
38629;SDS011;24384;51.988;4.644;2023-07-30T10:04:21;7.75;;;2.03;;
38629;SDS011;24384;51.988;4.644;2023-07-30T10:06:57;11.45;;;1.95;;
38629;SDS011;24384;51.988;4.644;2023-07-30T10:09:28;7.05;;;2.08;;
38629;SDS011;24384;51.988;4.644;2023-07-30T10:11:55;10.18;;;2.30;;
38629;SDS011;24384;51.988;4.644;2023-07-30T10:14:22;9.77;;;2.47;;
38629;SDS011;24384;51.988;4.644;2023-07-30T10:16:53;8.48;;;1.98;;
38629;SDS011;24384;51.988;4.644;2023-07-30T10:19:24;7.57;;;2.25;;
38629;SDS011;24384;51.988;4.644;2023-07-30T10:21:50;14.05;;;2.35;;
38629;SDS011;24384;51.988;4.644;2023-07-30T10:24:16;6.43;;;1.70;;
38629;SDS011;24384;51.988;4.644;2023-07-30T10:26:41;8.18;;;1.58;;
38629;SDS011;24384;51.988;4.644;2023-07-30T10:29:10;9.38;;;2.47;;
38629;SDS011;24384;51.988;4.644;2023-07-30T10:31:39;8.07;;;2.38;;
38629;SDS011;24384;51.988;4.644;2023-07-30T10:34:09;5.85;;;1.70;;
38629;SDS011;24384;51.988;4.644;2023-07-30T10:36:50;12.18;;;1.95;;
38629;SDS011;24384;51.988;4.644;2023-07-30T10:39:17;8.35;;;2.58;;
38629;SDS011;24384;51.988;4.644;2023-07-30T10:41:51;6.55;;;1.80;;
38629;SDS011;24384;51.988;4.644;2023-07-30T10:46:48;19.23;;;2.85;;
38629;SDS011;24384;51.988;4.644;2023-07-30T10:49:14;13.80;;;2.63;;
38629;SDS011;24384;51.988;4.644;2023-07-30T10:51:39;11.45;;;2.85;;
38629;SDS011;24384;51.988;4.644;2023-07-30T10:54:08;12.15;;;2.83;;
38629;SDS011;24384;51.988;4.644;2023-07-30T10:56:34;9.18;;;2.65;;
38629;SDS011;24384;51.988;4.644;2023-07-30T10:59:05;10.20;;;2.47;;
38629;SDS011;24384;51.988;4.644;2023-07-30T11:01:40;9.93;;;2.47;;
38629;SDS011;24384;51.988;4.644;2023-07-30T11:04:10;11.35;;;1.73;;
38629;SDS011;24384;51.988;4.644;2023-07-30T11:06:36;11.48;;;2.95;;
38629;SDS011;24384;51.988;4.644;2023-07-30T11:09:03;6.75;;;1.45;;
38629;SDS011;24384;51.988;4.644;2023-07-30T11:11:29;6.28;;;1.83;;
38629;SDS011;24384;51.988;4.644;2023-07-30T11:13:55;8.98;;;1.88;;
38629;SDS011;24384;51.988;4.644;2023-07-30T11:16:21;14.05;;;1.83;;
38629;SDS011;24384;51.988;4.644;2023-07-30T11:18:47;8.43;;;2.10;;
38629;SDS011;24384;51.988;4.644;2023-07-30T11:21:15;4.55;;;1.83;;
38629;SDS011;24384;51.988;4.644;2023-07-30T11:23:42;8.38;;;2.15;;
38629;SDS011;24384;51.988;4.644;2023-07-30T11:26:09;14.27;;;2.97;;
38629;SDS011;24384;51.988;4.644;2023-07-30T11:28:39;14.57;;;2.22;;
38629;SDS011;24384;51.988;4.644;2023-07-30T11:31:12;8.02;;;2.08;;
38629;SDS011;24384;51.988;4.644;2023-07-30T11:33:42;9.38;;;1.70;;
38629;SDS011;24384;51.988;4.644;2023-07-30T11:36:12;6.05;;;2.00;;
38629;SDS011;24384;51.988;4.644;2023-07-30T11:38:41;6.65;;;1.75;;
38629;SDS011;24384;51.988;4.644;2023-07-30T11:41:08;7.25;;;2.08;;
38629;SDS011;24384;51.988;4.644;2023-07-30T11:43:38;7.38;;;2.30;;
38629;SDS011;24384;51.988;4.644;2023-07-30T11:46:15;8.23;;;1.80;;
38629;SDS011;24384;51.988;4.644;2023-07-30T11:48:45;8.75;;;2.20;;
38629;SDS011;24384;51.988;4.644;2023-07-30T11:51:25;11.43;;;3.25;;
38629;SDS011;24384;51.988;4.644;2023-07-30T11:53:52;6.60;;;1.98;;
38629;SDS011;24384;51.988;4.644;2023-07-30T11:56:23;8.75;;;3.53;;
38629;SDS011;24384;51.988;4.644;2023-07-30T11:59:05;13.23;;;2.35;;
38629;SDS011;24384;51.988;4.644;2023-07-30T12:01:32;8.65;;;2.10;;
38629;SDS011;24384;51.988;4.644;2023-07-30T12:04:00;10.73;;;2.20;;
38629;SDS011;24384;51.988;4.644;2023-07-30T12:09:11;11.43;;;2.15;;
38629;SDS011;24384;51.988;4.644;2023-07-30T12:11:43;10.80;;;2.00;;
38629;SDS011;24384;51.988;4.644;2023-07-30T12:14:13;4.97;;;1.42;;
38629;SDS011;24384;51.988;4.644;2023-07-30T12:16:39;6.03;;;1.60;;
38629;SDS011;24384;51.988;4.644;2023-07-30T12:19:07;6.55;;;2.15;;
38629;SDS011;24384;51.988;4.644;2023-07-30T12:21:32;8.98;;;1.98;;
38629;SDS011;24384;51.988;4.644;2023-07-30T12:23:58;9.82;;;2.42;;
38629;SDS011;24384;51.988;4.644;2023-07-30T12:26:23;3.88;;;1.30;;
38629;SDS011;24384;51.988;4.644;2023-07-30T12:28:48;5.72;;;1.63;;
38629;SDS011;24384;51.988;4.644;2023-07-30T12:31:13;6.53;;;1.92;;
38629;SDS011;24384;51.988;4.644;2023-07-30T12:33:39;7.20;;;1.60;;
38629;SDS011;24384;51.988;4.644;2023-07-30T12:36:04;11.57;;;1.50;;
38629;SDS011;24384;51.988;4.644;2023-07-30T12:38:29;22.67;;;2.65;;
38629;SDS011;24384;51.988;4.644;2023-07-30T12:40:54;12.45;;;1.75;;
38629;SDS011;24384;51.988;4.644;2023-07-30T12:43:20;9.20;;;2.28;;
38629;SDS011;24384;51.988;4.644;2023-07-30T12:45:46;5.68;;;1.85;;
38629;SDS011;24384;51.988;4.644;2023-07-30T12:48:11;5.40;;;1.23;;
38629;SDS011;24384;51.988;4.644;2023-07-30T12:50:37;12.40;;;1.65;;
38629;SDS011;24384;51.988;4.644;2023-07-30T12:53:02;7.35;;;1.33;;
38629;SDS011;24384;51.988;4.644;2023-07-30T12:55:27;7.68;;;1.88;;
38629;SDS011;24384;51.988;4.644;2023-07-30T12:57:52;5.60;;;1.70;;
38629;SDS011;24384;51.988;4.644;2023-07-30T13:00:18;10.18;;;2.35;;
38629;SDS011;24384;51.988;4.644;2023-07-30T13:02:43;10.93;;;2.13;;
38629;SDS011;24384;51.988;4.644;2023-07-30T13:05:08;8.00;;;2.15;;
38629;SDS011;24384;51.988;4.644;2023-07-30T13:07:33;8.50;;;2.33;;
38629;SDS011;24384;51.988;4.644;2023-07-30T13:10:03;10.55;;;2.00;;
38629;SDS011;24384;51.988;4.644;2023-07-30T13:12:29;13.00;;;2.45;;
38629;SDS011;24384;51.988;4.644;2023-07-30T13:14:55;5.00;;;1.42;;
38629;SDS011;24384;51.988;4.644;2023-07-30T13:17:20;8.18;;;2.20;;
38629;SDS011;24384;51.988;4.644;2023-07-30T13:19:47;8.30;;;2.15;;
38629;SDS011;24384;51.988;4.644;2023-07-30T13:22:12;8.77;;;1.90;;
38629;SDS011;24384;51.988;4.644;2023-07-30T13:24:37;8.38;;;2.58;;
38629;SDS011;24384;51.988;4.644;2023-07-30T13:27:04;12.25;;;2.22;;
38629;SDS011;24384;51.988;4.644;2023-07-30T13:29:30;8.60;;;2.08;;
38629;SDS011;24384;51.988;4.644;2023-07-30T13:31:55;10.48;;;2.30;;
38629;SDS011;24384;51.988;4.644;2023-07-30T13:34:21;8.40;;;2.13;;
38629;SDS011;24384;51.988;4.644;2023-07-30T13:36:46;8.82;;;2.53;;
38629;SDS011;24384;51.988;4.644;2023-07-30T13:39:11;12.05;;;2.17;;
38629;SDS011;24384;51.988;4.644;2023-07-30T13:41:37;8.63;;;2.65;;
38629;SDS011;24384;51.988;4.644;2023-07-30T13:44:02;15.90;;;2.45;;
38629;SDS011;24384;51.988;4.644;2023-07-30T13:46:27;9.98;;;2.55;;
38629;SDS011;24384;51.988;4.644;2023-07-30T13:48:52;11.95;;;2.65;;
38629;SDS011;24384;51.988;4.644;2023-07-30T13:51:18;15.88;;;2.75;;
38629;SDS011;24384;51.988;4.644;2023-07-30T13:53:43;8.45;;;2.58;;
38629;SDS011;24384;51.988;4.644;2023-07-30T13:56:09;10.10;;;2.40;;
38629;SDS011;24384;51.988;4.644;2023-07-30T13:58:35;16.65;;;3.72;;
38629;SDS011;24384;51.988;4.644;2023-07-30T14:01:00;15.23;;;2.58;;
38629;SDS011;24384;51.988;4.644;2023-07-30T14:03:25;15.05;;;3.47;;
38629;SDS011;24384;51.988;4.644;2023-07-30T14:05:50;9.77;;;3.30;;
38629;SDS011;24384;51.988;4.644;2023-07-30T14:08:16;13.25;;;2.97;;
38629;SDS011;24384;51.988;4.644;2023-07-30T14:10:42;11.90;;;3.50;;
38629;SDS011;24384;51.988;4.644;2023-07-30T14:13:07;25.77;;;3.03;;
38629;SDS011;24384;51.988;4.644;2023-07-30T14:15:33;14.20;;;3.13;;
38629;SDS011;24384;51.988;4.644;2023-07-30T14:17:58;21.73;;;3.35;;
38629;SDS011;24384;51.988;4.644;2023-07-30T14:20:23;9.65;;;2.70;;
38629;SDS011;24384;51.988;4.644;2023-07-30T14:22:48;9.88;;;2.40;;
38629;SDS011;24384;51.988;4.644;2023-07-30T14:25:14;18.85;;;3.10;;
38629;SDS011;24384;51.988;4.644;2023-07-30T14:27:39;11.85;;;2.70;;
38629;SDS011;24384;51.988;4.644;2023-07-30T14:30:05;12.13;;;3.28;;
38629;SDS011;24384;51.988;4.644;2023-07-30T14:32:31;10.07;;;2.80;;
38629;SDS011;24384;51.988;4.644;2023-07-30T14:34:56;18.60;;;3.83;;
38629;SDS011;24384;51.988;4.644;2023-07-30T14:37:22;15.43;;;3.45;;